sensor_id;sensor_type;location;lat;lon;timestamp;pressure;altitude;pressure_sealevel;temperature;humidity
41250;BME280;26984;59.928;30.306;2023-01-28T00:01:55;102366.56;;;-2.91;100.00
41250;BME280;26984;59.928;30.306;2023-01-28T00:04:23;102369.28;;;-2.93;100.00
41250;BME280;26984;59.928;30.306;2023-01-28T00:06:52;102374.38;;;-2.90;100.00
41250;BME280;26984;59.928;30.306;2023-01-28T00:09:20;102377.25;;;-2.78;100.00
41250;BME280;26984;59.928;30.306;2023-01-28T00:11:48;102365.94;;;-2.96;100.00
41250;BME280;26984;59.928;30.306;2023-01-28T00:14:16;102375.31;;;-2.91;100.00
41250;BME280;26984;59.928;30.306;2023-01-28T00:16:45;102372.78;;;-3.08;100.00
41250;BME280;26984;59.928;30.306;2023-01-28T00:19:13;102372.53;;;-3.19;100.00
41250;BME280;26984;59.928;30.306;2023-01-28T00:21:40;102372.44;;;-3.18;100.00
41250;BME280;26984;59.928;30.306;2023-01-28T00:24:10;102363.16;;;-3.41;100.00
41250;BME280;26984;59.928;30.306;2023-01-28T00:26:37;102357.25;;;-3.46;100.00
41250;BME280;26984;59.928;30.306;2023-01-28T00:29:05;102359.38;;;-3.68;100.00
41250;BME280;26984;59.928;30.306;2023-01-28T00:31:33;102362.16;;;-3.71;100.00
41250;BME280;26984;59.928;30.306;2023-01-28T00:34:02;102351.72;;;-3.57;100.00
41250;BME280;26984;59.928;30.306;2023-01-28T00:36:31;102354.00;;;-3.67;100.00
41250;BME280;26984;59.928;30.306;2023-01-28T00:39:05;102346.34;;;-3.71;100.00
41250;BME280;26984;59.928;30.306;2023-01-28T00:41:35;102337.81;;;-3.59;100.00
41250;BME280;26984;59.928;30.306;2023-01-28T00:44:04;102345.63;;;-3.42;100.00
41250;BME280;26984;59.928;30.306;2023-01-28T00:46:31;102335.75;;;-3.38;100.00
41250;BME280;26984;59.928;30.306;2023-01-28T00:49:00;102332.06;;;-3.34;100.00
41250;BME280;26984;59.928;30.306;2023-01-28T00:51:28;102313.59;;;-3.18;100.00
41250;BME280;26984;59.928;30.306;2023-01-28T00:53:56;102330.69;;;-3.09;100.00
41250;BME280;26984;59.928;30.306;2023-01-28T00:56:24;102325.47;;;-3.43;100.00
41250;BME280;26984;59.928;30.306;2023-01-28T00:58:53;102333.66;;;-3.31;100.00
41250;BME280;26984;59.928;30.306;2023-01-28T01:01:22;102330.41;;;-3.52;100.00
41250;BME280;26984;59.928;30.306;2023-01-28T01:03:51;102334.03;;;-3.71;100.00
41250;BME280;26984;59.928;30.306;2023-01-28T01:06:30;102314.94;;;-3.92;100.00
41250;BME280;26984;59.928;30.306;2023-01-28T01:08:59;102308.53;;;-3.70;100.00
41250;BME280;26984;59.928;30.306;2023-01-28T01:11:27;102313.91;;;-3.56;100.00
41250;BME280;26984;59.928;30.306;2023-01-28T01:13:57;102315.53;;;-3.53;100.00
41250;BME280;26984;59.928;30.306;2023-01-28T01:16:29;102324.38;;;-3.39;100.00
41250;BME280;26984;59.928;30.306;2023-01-28T01:18:58;102313.00;;;-3.39;100.00
41250;BME280;26984;59.928;30.306;2023-01-28T01:21:26;102319.47;;;-3.13;100.00
41250;BME280;26984;59.928;30.306;2023-01-28T01:23:55;102321.41;;;-3.32;100.00
41250;BME280;26984;59.928;30.306;2023-01-28T01:26:22;102318.84;;;-3.18;100.00
41250;BME280;26984;59.928;30.306;2023-01-28T01:28:52;102311.81;;;-3.33;100.00
41250;BME280;26984;59.928;30.306;2023-01-28T01:31:21;102311.53;;;-3.29;100.00
41250;BME280;26984;59.928;30.306;2023-01-28T01:33:50;102311.56;;;-3.45;100.00
41250;BME280;26984;59.928;30.306;2023-01-28T01:36:19;102307.19;;;-3.46;100.00
41250;BME280;26984;59.928;30.306;2023-01-28T01:38:47;102303.47;;;-3.57;100.00
41250;BME280;26984;59.928;30.306;2023-01-28T01:41:21;102311.38;;;-3.57;100.00
41250;BME280;26984;59.928;30.306;2023-01-28T01:43:51;102296.56;;;-3.76;100.00
41250;BME280;26984;59.928;30.306;2023-01-28T01:46:24;102294.25;;;-3.82;100.00
41250;BME280;26984;59.928;30.306;2023-01-28T01:48:54;102285.63;;;-3.68;100.00
41250;BME280;26984;59.928;30.306;2023-01-28T01:51:26;102286.13;;;-3.46;100.00
41250;BME280;26984;59.928;30.306;2023-01-28T01:53:57;102283.50;;;-3.30;100.00
41250;BME280;26984;59.928;30.306;2023-01-28T01:56:29;102261.56;;;-3.30;100.00
41250;BME280;26984;59.928;30.306;2023-01-28T01:58:59;102289.06;;;-3.04;100.00
41250;BME280;26984;59.928;30.306;2023-01-28T02:01:30;102268.44;;;-3.28;100.00
41250;BME280;26984;59.928;30.306;2023-01-28T02:04:04;102275.31;;;-3.25;100.00
41250;BME280;26984;59.928;30.306;2023-01-28T02:06:33;102272.41;;;-3.21;100.00
41250;BME280;26984;59.928;30.306;2023-01-28T02:09:06;102286.34;;;-3.03;100.00
41250;BME280;26984;59.928;30.306;2023-01-28T02:11:34;102276.84;;;-3.05;100.00
41250;BME280;26984;59.928;30.306;2023-01-28T02:14:04;102278.09;;;-2.97;100.00
41250;BME280;26984;59.928;30.306;2023-01-28T02:16:34;102264.50;;;-3.21;100.00
41250;BME280;26984;59.928;30.306;2023-01-28T02:19:02;102269.38;;;-3.29;100.00
41250;BME280;26984;59.928;30.306;2023-01-28T02:21:37;102261.19;;;-3.24;100.00
41250;BME280;26984;59.928;30.306;2023-01-28T02:24:52;102260.19;;;-3.53;100.00
41250;BME280;26984;59.928;30.306;2023-01-28T02:27:30;102249.84;;;-3.72;100.00
41250;BME280;26984;59.928;30.306;2023-01-28T02:30:06;102268.69;;;-3.80;100.00
41250;BME280;26984;59.928;30.306;2023-01-28T02:32:41;102264.88;;;-3.90;100.00
41250;BME280;26984;59.928;30.306;2023-01-28T02:35:14;102252.63;;;-3.91;100.00
41250;BME280;26984;59.928;30.306;2023-01-28T02:37:46;102261.13;;;-3.70;100.00
41250;BME280;26984;59.928;30.306;2023-01-28T02:40:17;102252.38;;;-3.71;100.00
41250;BME280;26984;59.928;30.306;2023-01-28T02:42:47;102263.44;;;-3.64;100.00
41250;BME280;26984;59.928;30.306;2023-01-28T02:45:20;102255.44;;;-3.47;100.00
41250;BME280;26984;59.928;30.306;2023-01-28T02:47:48;102259.38;;;-3.70;100.00
41250;BME280;26984;59.928;30.306;2023-01-28T02:50:31;102258.69;;;-3.57;100.00
41250;BME280;26984;59.928;30.306;2023-01-28T02:53:14;102250.88;;;-3.59;100.00
41250;BME280;26984;59.928;30.306;2023-01-28T02:56:09;102256.91;;;-3.73;100.00
41250;BME280;26984;59.928;30.306;2023-01-28T02:58:42;102252.06;;;-3.65;100.00
41250;BME280;26984;59.928;30.306;2023-01-28T03:01:19;102244.66;;;-3.58;100.00
41250;BME280;26984;59.928;30.306;2023-01-28T03:03:57;102262.16;;;-3.57;100.00
41250;BME280;26984;59.928;30.306;2023-01-28T03:06:30;102254.19;;;-3.55;100.00
41250;BME280;26984;59.928;30.306;2023-01-28T03:09:05;102252.31;;;-3.53;100.00
41250;BME280;26984;59.928;30.306;2023-01-28T03:11:56;102250.97;;;-3.45;100.00
41250;BME280;26984;59.928;30.306;2023-01-28T03:14:45;102240.91;;;-3.38;100.00
41250;BME280;26984;59.928;30.306;2023-01-28T03:17:39;102238.69;;;-3.30;100.00
41250;BME280;26984;59.928;30.306;2023-01-28T03:20:28;102249.13;;;-3.28;100.00
41250;BME280;26984;59.928;30.306;2023-01-28T03:23:21;102251.97;;;-3.47;100.00
41250;BME280;26984;59.928;30.306;2023-01-28T03:26:10;102248.75;;;-3.84;100.00
41250;BME280;26984;59.928;30.306;2023-01-28T03:29:00;102248.47;;;-3.79;100.00
41250;BME280;26984;59.928;30.306;2023-01-28T03:31:50;102250.38;;;-3.99;100.00
41250;BME280;26984;59.928;30.306;2023-01-28T03:34:37;102240.31;;;-3.91;100.00
41250;BME280;26984;59.928;30.306;2023-01-28T03:37:22;102243.97;;;-3.93;100.00
41250;BME280;26984;59.928;30.306;2023-01-28T03:40:06;102235.47;;;-3.82;100.00
41250;BME280;26984;59.928;30.306;2023-01-28T03:42:35;102224.50;;;-3.75;100.00
41250;BME280;26984;59.928;30.306;2023-01-28T03:45:12;102222.22;;;-3.65;100.00
41250;BME280;26984;59.928;30.306;2023-01-28T03:47:40;102230.97;;;-3.49;100.00
41250;BME280;26984;59.928;30.306;2023-01-28T03:50:12;102211.44;;;-3.45;100.00
41250;BME280;26984;59.928;30.306;2023-01-28T03:52:50;102213.47;;;-3.34;100.00
41250;BME280;26984;59.928;30.306;2023-01-28T03:55:26;102210.38;;;-3.26;100.00
41250;BME280;26984;59.928;30.306;2023-01-28T03:57:54;102196.34;;;-3.27;100.00
41250;BME280;26984;59.928;30.306;2023-01-28T04:00:22;102205.22;;;-3.14;100.00
41250;BME280;26984;59.928;30.306;2023-01-28T04:02:50;102203.53;;;-3.15;100.00
41250;BME280;26984;59.928;30.306;2023-01-28T04:05:21;102199.22;;;-3.16;100.00
41250;BME280;26984;59.928;30.306;2023-01-28T04:07:53;102186.88;;;-3.15;100.00
41250;BME280;26984;59.928;30.306;2023-01-28T04:10:40;102205.28;;;-2.99;100.00
41250;BME280;26984;59.928;30.306;2023-01-28T04:13:23;102198.91;;;-2.95;100.00
41250;BME280;26984;59.928;30.306;2023-01-28T04:15:52;102194.53;;;-2.96;100.00
41250;BME280;26984;59.928;30.306;2023-01-28T04:18:20;102193.31;;;-3.05;100.00
41250;BME280;26984;59.928;30.306;2023-01-28T04:20:55;102188.56;;;-3.44;100.00
41250;BME280;26984;59.928;30.306;2023-01-28T04:23:23;102194.59;;;-3.58;100.00
41250;BME280;26984;59.928;30.306;2023-01-28T04:25:51;102185.34;;;-3.65;100.00
41250;BME280;26984;59.928;30.306;2023-01-28T04:28:19;102193.84;;;-3.76;100.00
41250;BME280;26984;59.928;30.306;2023-01-28T04:30:47;102193.41;;;-3.68;100.00
41250;BME280;26984;59.928;30.306;2023-01-28T04:33:34;102187.03;;;-3.96;100.00
41250;BME280;26984;59.928;30.306;2023-01-28T04:36:22;102192.56;;;-4.16;100.00
41250;BME280;26984;59.928;30.306;2023-01-28T04:39:22;102183.47;;;-4.26;100.00
41250;BME280;26984;59.928;30.306;2023-01-28T04:42:09;102190.16;;;-4.37;100.00
41250;BME280;26984;59.928;30.306;2023-01-28T04:44:50;102197.19;;;-4.37;100.00
41250;BME280;26984;59.928;30.306;2023-01-28T04:47:34;102186.84;;;-4.40;100.00
41250;BME280;26984;59.928;30.306;2023-01-28T04:50:20;102176.25;;;-4.56;100.00
41250;BME280;26984;59.928;30.306;2023-01-28T04:53:28;102177.63;;;-4.49;100.00
41250;BME280;26984;59.928;30.306;2023-01-28T04:56:05;102180.16;;;-4.30;100.00
41250;BME280;26984;59.928;30.306;2023-01-28T04:58:35;102171.00;;;-4.56;100.00
41250;BME280;26984;59.928;30.306;2023-01-28T05:01:06;102185.19;;;-4.59;100.00
41250;BME280;26984;59.928;30.306;2023-01-28T05:03:34;102164.72;;;-4.53;100.00
41250;BME280;26984;59.928;30.306;2023-01-28T05:06:03;102164.81;;;-4.55;100.00
41250;BME280;26984;59.928;30.306;2023-01-28T05:08:43;102153.69;;;-4.60;100.00
41250;BME280;26984;59.928;30.306;2023-01-28T05:11:13;102172.16;;;-4.44;100.00
41250;BME280;26984;59.928;30.306;2023-01-28T05:13:42;102155.84;;;-4.51;100.00
41250;BME280;26984;59.928;30.306;2023-01-28T05:16:12;102154.56;;;-4.44;100.00
41250;BME280;26984;59.928;30.306;2023-01-28T05:18:40;102148.53;;;-4.46;100.00
41250;BME280;26984;59.928;30.306;2023-01-28T05:21:14;102148.22;;;-4.40;100.00
41250;BME280;26984;59.928;30.306;2023-01-28T05:23:44;102141.94;;;-4.21;100.00
41250;BME280;26984;59.928;30.306;2023-01-28T05:26:12;102139.66;;;-4.12;100.00
41250;BME280;26984;59.928;30.306;2023-01-28T05:28:40;102145.25;;;-4.18;100.00
41250;BME280;26984;59.928;30.306;2023-01-28T05:31:09;102135.25;;;-4.11;100.00
41250;BME280;26984;59.928;30.306;2023-01-28T05:33:38;102139.16;;;-4.18;100.00
41250;BME280;26984;59.928;30.306;2023-01-28T05:36:08;102134.84;;;-4.19;100.00
41250;BME280;26984;59.928;30.306;2023-01-28T05:38:38;102134.38;;;-4.27;100.00
41250;BME280;26984;59.928;30.306;2023-01-28T05:41:07;102127.06;;;-4.38;100.00
41250;BME280;26984;59.928;30.306;2023-01-28T05:43:36;102144.31;;;-4.32;100.00
41250;BME280;26984;59.928;30.306;2023-01-28T05:46:18;102134.75;;;-4.34;100.00
41250;BME280;26984;59.928;30.306;2023-01-28T05:49:08;102125.97;;;-4.34;100.00
41250;BME280;26984;59.928;30.306;2023-01-28T05:52:10;102118.91;;;-4.49;100.00
41250;BME280;26984;59.928;30.306;2023-01-28T05:54:39;102122.28;;;-4.63;100.00
41250;BME280;26984;59.928;30.306;2023-01-28T05:57:08;102137.53;;;-4.37;100.00
41250;BME280;26984;59.928;30.306;2023-01-28T05:59:36;102132.91;;;-4.49;100.00
41250;BME280;26984;59.928;30.306;2023-01-28T06:02:04;102127.66;;;-4.49;100.00
41250;BME280;26984;59.928;30.306;2023-01-28T06:04:32;102126.53;;;-4.61;100.00
41250;BME280;26984;59.928;30.306;2023-01-28T06:07:00;102125.69;;;-4.45;100.00
41250;BME280;26984;59.928;30.306;2023-01-28T06:09:28;102118.06;;;-4.34;100.00
41250;BME280;26984;59.928;30.306;2023-01-28T06:11:56;102126.19;;;-4.05;100.00
41250;BME280;26984;59.928;30.306;2023-01-28T06:14:25;102130.84;;;-3.95;100.00
41250;BME280;26984;59.928;30.306;2023-01-28T06:17:10;102137.94;;;-3.81;100.00
41250;BME280;26984;59.928;30.306;2023-01-28T06:19:47;102148.47;;;-3.65;100.00
41250;BME280;26984;59.928;30.306;2023-01-28T06:22:15;102141.31;;;-3.63;100.00
41250;BME280;26984;59.928;30.306;2023-01-28T06:24:44;102145.22;;;-3.70;100.00
41250;BME280;26984;59.928;30.306;2023-01-28T06:27:12;102144.38;;;-3.71;100.00
41250;BME280;26984;59.928;30.306;2023-01-28T06:29:41;102141.31;;;-3.63;100.00
41250;BME280;26984;59.928;30.306;2023-01-28T06:32:09;102124.97;;;-3.84;100.00
41250;BME280;26984;59.928;30.306;2023-01-28T06:34:36;102142.63;;;-3.86;100.00
41250;BME280;26984;59.928;30.306;2023-01-28T06:37:04;102137.09;;;-3.66;100.00
41250;BME280;26984;59.928;30.306;2023-01-28T06:39:32;102105.59;;;-3.99;100.00
41250;BME280;26984;59.928;30.306;2023-01-28T06:42:00;102129.94;;;-3.64;100.00
41250;BME280;26984;59.928;30.306;2023-01-28T06:44:27;102141.75;;;-3.55;100.00
41250;BME280;26984;59.928;30.306;2023-01-28T06:46:57;102130.91;;;-3.80;100.00
41250;BME280;26984;59.928;30.306;2023-01-28T06:49:24;102132.81;;;-3.98;100.00
41250;BME280;26984;59.928;30.306;2023-01-28T06:51:52;102135.91;;;-3.92;100.00
41250;BME280;26984;59.928;30.306;2023-01-28T06:54:20;102135.81;;;-3.74;100.00
41250;BME280;26984;59.928;30.306;2023-01-28T06:56:48;102137.94;;;-3.65;100.00
41250;BME280;26984;59.928;30.306;2023-01-28T06:59:16;102130.25;;;-3.54;100.00
41250;BME280;26984;59.928;30.306;2023-01-28T07:01:44;102121.91;;;-3.46;100.00
41250;BME280;26984;59.928;30.306;2023-01-28T07:04:13;102128.44;;;-3.38;100.00
41250;BME280;26984;59.928;30.306;2023-01-28T07:06:41;102124.66;;;-3.48;100.00
41250;BME280;26984;59.928;30.306;2023-01-28T07:09:09;102120.25;;;-3.63;100.00
41250;BME280;26984;59.928;30.306;2023-01-28T07:11:37;102117.66;;;-3.49;100.00
41250;BME280;26984;59.928;30.306;2023-01-28T07:14:05;102108.78;;;-3.62;100.00
41250;BME280;26984;59.928;30.306;2023-01-28T07:16:33;102099.53;;;-3.69;100.00
41250;BME280;26984;59.928;30.306;2023-01-28T07:19:00;102094.06;;;-3.50;100.00
41250;BME280;26984;59.928;30.306;2023-01-28T07:21:29;102094.63;;;-3.45;100.00
41250;BME280;26984;59.928;30.306;2023-01-28T07:23:57;102101.31;;;-3.40;100.00
41250;BME280;26984;59.928;30.306;2023-01-28T07:26:25;102081.59;;;-3.32;100.00
41250;BME280;26984;59.928;30.306;2023-01-28T07:28:53;102079.38;;;-3.54;100.00
41250;BME280;26984;59.928;30.306;2023-01-28T07:31:21;102080.63;;;-3.31;100.00
41250;BME280;26984;59.928;30.306;2023-01-28T07:33:49;102085.97;;;-3.47;100.00
41250;BME280;26984;59.928;30.306;2023-01-28T07:36:17;102084.97;;;-3.45;100.00
41250;BME280;26984;59.928;30.306;2023-01-28T07:38:46;102080.59;;;-3.46;100.00
41250;BME280;26984;59.928;30.306;2023-01-28T07:41:14;102081.78;;;-3.66;100.00
41250;BME280;26984;59.928;30.306;2023-01-28T07:43:42;102080.72;;;-3.63;100.00
41250;BME280;26984;59.928;30.306;2023-01-28T07:46:11;102070.03;;;-3.60;100.00
41250;BME280;26984;59.928;30.306;2023-01-28T07:48:39;102067.72;;;-3.50;100.00
41250;BME280;26984;59.928;30.306;2023-01-28T07:51:07;102071.81;;;-3.30;100.00
41250;BME280;26984;59.928;30.306;2023-01-28T07:53:35;102067.38;;;-3.60;100.00
41250;BME280;26984;59.928;30.306;2023-01-28T07:56:04;102061.59;;;-3.51;100.00
41250;BME280;26984;59.928;30.306;2023-01-28T07:58:32;102055.06;;;-3.29;100.00
41250;BME280;26984;59.928;30.306;2023-01-28T08:01:01;102046.16;;;-3.43;100.00
41250;BME280;26984;59.928;30.306;2023-01-28T08:03:29;102060.56;;;-3.48;100.00
41250;BME280;26984;59.928;30.306;2023-01-28T08:05:58;102058.69;;;-3.46;100.00
41250;BME280;26984;59.928;30.306;2023-01-28T08:08:26;102065.19;;;-3.52;100.00
41250;BME280;26984;59.928;30.306;2023-01-28T08:10:54;102068.56;;;-3.50;100.00
41250;BME280;26984;59.928;30.306;2023-01-28T08:13:23;102055.47;;;-3.51;100.00
41250;BME280;26984;59.928;30.306;2023-01-28T08:15:54;102043.81;;;-3.47;100.00
41250;BME280;26984;59.928;30.306;2023-01-28T08:18:21;102038.44;;;-3.46;100.00
41250;BME280;26984;59.928;30.306;2023-01-28T08:20:53;102041.06;;;-3.46;100.00
41250;BME280;26984;59.928;30.306;2023-01-28T08:23:22;102030.50;;;-3.30;100.00
41250;BME280;26984;59.928;30.306;2023-01-28T08:25:52;102021.28;;;-3.23;100.00
41250;BME280;26984;59.928;30.306;2023-01-28T08:28:20;102025.41;;;-3.04;100.00
41250;BME280;26984;59.928;30.306;2023-01-28T08:30:50;102027.88;;;-2.87;100.00
41250;BME280;26984;59.928;30.306;2023-01-28T08:33:18;102026.06;;;-3.01;100.00
41250;BME280;26984;59.928;30.306;2023-01-28T08:35:46;102012.22;;;-3.04;100.00
41250;BME280;26984;59.928;30.306;2023-01-28T08:38:14;102010.16;;;-3.14;100.00
41250;BME280;26984;59.928;30.306;2023-01-28T08:40:43;101997.72;;;-3.11;100.00
41250;BME280;26984;59.928;30.306;2023-01-28T08:43:11;102000.56;;;-3.00;100.00
41250;BME280;26984;59.928;30.306;2023-01-28T08:45:39;101996.03;;;-2.98;100.00
41250;BME280;26984;59.928;30.306;2023-01-28T08:48:13;101997.84;;;-3.13;100.00
41250;BME280;26984;59.928;30.306;2023-01-28T08:50:42;101987.72;;;-3.35;100.00
41250;BME280;26984;59.928;30.306;2023-01-28T08:53:11;101990.47;;;-3.22;100.00
41250;BME280;26984;59.928;30.306;2023-01-28T08:55:40;101978.69;;;-3.45;100.00
41250;BME280;26984;59.928;30.306;2023-01-28T08:58:13;101984.84;;;-3.45;100.00
41250;BME280;26984;59.928;30.306;2023-01-28T09:00:45;101952.44;;;-3.61;100.00
41250;BME280;26984;59.928;30.306;2023-01-28T09:03:15;101978.50;;;-3.42;100.00
41250;BME280;26984;59.928;30.306;2023-01-28T09:05:43;101976.53;;;-3.24;100.00
41250;BME280;26984;59.928;30.306;2023-01-28T09:08:13;101976.16;;;-3.18;100.00
41250;BME280;26984;59.928;30.306;2023-01-28T09:10:41;101971.09;;;-3.21;100.00
41250;BME280;26984;59.928;30.306;2023-01-28T09:13:11;101967.59;;;-3.22;100.00
41250;BME280;26984;59.928;30.306;2023-01-28T09:15:39;101963.84;;;-3.18;100.00
41250;BME280;26984;59.928;30.306;2023-01-28T09:18:07;101956.09;;;-3.06;100.00
41250;BME280;26984;59.928;30.306;2023-01-28T09:20:37;101963.09;;;-3.20;100.00
41250;BME280;26984;59.928;30.306;2023-01-28T09:23:05;101958.19;;;-3.11;100.00
41250;BME280;26984;59.928;30.306;2023-01-28T09:25:33;101957.13;;;-2.80;100.00
41250;BME280;26984;59.928;30.306;2023-01-28T09:28:02;101948.38;;;-2.81;100.00
41250;BME280;26984;59.928;30.306;2023-01-28T09:30:30;101951.44;;;-2.74;100.00
41250;BME280;26984;59.928;30.306;2023-01-28T09:32:57;101952.59;;;-2.51;100.00
41250;BME280;26984;59.928;30.306;2023-01-28T09:35:25;101946.94;;;-2.45;100.00
41250;BME280;26984;59.928;30.306;2023-01-28T09:37:56;101949.41;;;-2.29;100.00
41250;BME280;26984;59.928;30.306;2023-01-28T09:40:31;101946.09;;;-2.87;100.00
41250;BME280;26984;59.928;30.306;2023-01-28T09:43:17;101931.25;;;-3.02;100.00
41250;BME280;26984;59.928;30.306;2023-01-28T09:45:49;101923.09;;;-3.26;100.00
41250;BME280;26984;59.928;30.306;2023-01-28T09:48:22;101911.13;;;-3.18;100.00
41250;BME280;26984;59.928;30.306;2023-01-28T09:50:52;101919.13;;;-3.33;100.00
41250;BME280;26984;59.928;30.306;2023-01-28T09:53:24;101920.47;;;-3.55;100.00
41250;BME280;26984;59.928;30.306;2023-01-28T09:55:55;101911.06;;;-3.59;100.00
41250;BME280;26984;59.928;30.306;2023-01-28T09:58:23;101912.09;;;-3.47;100.00
41250;BME280;26984;59.928;30.306;2023-01-28T10:00:55;101893.94;;;-3.52;100.00
41250;BME280;26984;59.928;30.306;2023-01-28T10:03:46;101901.25;;;-3.57;100.00
41250;BME280;26984;59.928;30.306;2023-01-28T10:06:23;101857.44;;;-3.72;100.00
41250;BME280;26984;59.928;30.306;2023-01-28T10:09:20;101886.09;;;-3.39;100.00
41250;BME280;26984;59.928;30.306;2023-01-28T10:12:03;101885.91;;;-3.50;100.00
41250;BME280;26984;59.928;30.306;2023-01-28T10:14:48;101889.88;;;-3.43;100.00
41250;BME280;26984;59.928;30.306;2023-01-28T10:17:21;101880.81;;;-3.39;100.00
41250;BME280;26984;59.928;30.306;2023-01-28T10:19:55;101880.28;;;-3.30;100.00
41250;BME280;26984;59.928;30.306;2023-01-28T10:22:27;101875.91;;;-3.31;100.00
41250;BME280;26984;59.928;30.306;2023-01-28T10:25:02;101883.16;;;-3.34;100.00
41250;BME280;26984;59.928;30.306;2023-01-28T10:27:34;101868.28;;;-3.21;100.00
41250;BME280;26984;59.928;30.306;2023-01-28T10:30:15;101859.69;;;-3.10;100.00
41250;BME280;26984;59.928;30.306;2023-01-28T10:32:50;101842.66;;;-3.05;100.00
41250;BME280;26984;59.928;30.306;2023-01-28T10:35:18;101833.91;;;-3.05;100.00
41250;BME280;26984;59.928;30.306;2023-01-28T10:37:46;101840.69;;;-2.89;100.00
41250;BME280;26984;59.928;30.306;2023-01-28T10:40:16;101831.16;;;-3.04;100.00
41250;BME280;26984;59.928;30.306;2023-01-28T10:42:45;101821.50;;;-3.18;100.00
41250;BME280;26984;59.928;30.306;2023-01-28T10:45:17;101841.38;;;-3.26;100.00
41250;BME280;26984;59.928;30.306;2023-01-28T10:47:50;101839.94;;;-3.59;100.00
41250;BME280;26984;59.928;30.306;2023-01-28T10:50:22;101809.84;;;-3.69;100.00
41250;BME280;26984;59.928;30.306;2023-01-28T10:52:54;101838.28;;;-3.33;100.00
41250;BME280;26984;59.928;30.306;2023-01-28T10:55:26;101828.94;;;-3.24;100.00
41250;BME280;26984;59.928;30.306;2023-01-28T10:57:55;101825.56;;;-3.26;100.00
41250;BME280;26984;59.928;30.306;2023-01-28T11:00:26;101827.63;;;-3.31;100.00
41250;BME280;26984;59.928;30.306;2023-01-28T11:02:56;101826.00;;;-3.05;100.00
41250;BME280;26984;59.928;30.306;2023-01-28T11:05:25;101834.97;;;-3.22;100.00
41250;BME280;26984;59.928;30.306;2023-01-28T11:08:05;101819.50;;;-3.41;100.00
41250;BME280;26984;59.928;30.306;2023-01-28T11:10:36;101826.28;;;-3.66;100.00
41250;BME280;26984;59.928;30.306;2023-01-28T11:13:14;101814.63;;;-3.76;100.00
41250;BME280;26984;59.928;30.306;2023-01-28T11:15:47;101806.56;;;-3.87;100.00
41250;BME280;26984;59.928;30.306;2023-01-28T11:18:17;101754.47;;;-4.11;100.00
41250;BME280;26984;59.928;30.306;2023-01-28T11:20:51;101795.19;;;-3.88;100.00
41250;BME280;26984;59.928;30.306;2023-01-28T11:23:21;101799.50;;;-3.72;100.00
41250;BME280;26984;59.928;30.306;2023-01-28T11:26:02;101780.47;;;-3.63;100.00
41250;BME280;26984;59.928;30.306;2023-01-28T11:28:31;101768.81;;;-3.59;100.00
41250;BME280;26984;59.928;30.306;2023-01-28T11:31:00;101784.47;;;-3.43;100.00
41250;BME280;26984;59.928;30.306;2023-01-28T11:33:32;101775.59;;;-3.28;100.00
41250;BME280;26984;59.928;30.306;2023-01-28T11:36:11;101767.88;;;-3.31;100.00
41250;BME280;26984;59.928;30.306;2023-01-28T11:38:47;101752.56;;;-3.39;100.00
41250;BME280;26984;59.928;30.306;2023-01-28T11:41:18;101758.13;;;-3.43;100.00
41250;BME280;26984;59.928;30.306;2023-01-28T11:43:50;101744.00;;;-3.42;100.00
41250;BME280;26984;59.928;30.306;2023-01-28T11:46:33;101736.41;;;-3.47;100.00
41250;BME280;26984;59.928;30.306;2023-01-28T11:49:09;101734.13;;;-3.66;100.00
41250;BME280;26984;59.928;30.306;2023-01-28T11:51:45;101731.06;;;-3.59;100.00
41250;BME280;26984;59.928;30.306;2023-01-28T11:54:25;101720.78;;;-3.77;100.00
41250;BME280;26984;59.928;30.306;2023-01-28T11:57:09;101698.97;;;-3.93;100.00
41250;BME280;26984;59.928;30.306;2023-01-28T12:00:10;101709.59;;;-3.80;100.00
41250;BME280;26984;59.928;30.306;2023-01-28T12:02:52;101704.56;;;-3.71;100.00
41250;BME280;26984;59.928;30.306;2023-01-28T12:05:41;101702.25;;;-3.75;100.00
41250;BME280;26984;59.928;30.306;2023-01-28T12:08:19;101698.59;;;-3.87;100.00
41250;BME280;26984;59.928;30.306;2023-01-28T12:11:12;101689.84;;;-3.73;100.00
41250;BME280;26984;59.928;30.306;2023-01-28T12:13:56;101692.84;;;-3.52;100.00
41250;BME280;26984;59.928;30.306;2023-01-28T12:16:40;101682.06;;;-3.35;100.00
41250;BME280;26984;59.928;30.306;2023-01-28T12:22:19;101672.13;;;-3.04;100.00
41250;BME280;26984;59.928;30.306;2023-01-28T12:25:11;101675.75;;;-2.80;100.00
41250;BME280;26984;59.928;30.306;2023-01-28T12:27:50;101673.63;;;-2.75;100.00
41250;BME280;26984;59.928;30.306;2023-01-28T12:30:27;101659.28;;;-2.71;100.00
41250;BME280;26984;59.928;30.306;2023-01-28T12:36:21;101653.72;;;-2.66;100.00
41250;BME280;26984;59.928;30.306;2023-01-28T12:38:58;101652.97;;;-2.55;100.00
41250;BME280;26984;59.928;30.306;2023-01-28T12:41:33;101646.31;;;-2.48;100.00
41250;BME280;26984;59.928;30.306;2023-01-28T12:44:09;101635.97;;;-2.64;100.00
41250;BME280;26984;59.928;30.306;2023-01-28T12:46:44;101640.94;;;-2.59;100.00
41250;BME280;26984;59.928;30.306;2023-01-28T12:49:20;101636.31;;;-2.56;100.00
41250;BME280;26984;59.928;30.306;2023-01-28T12:51:58;101642.09;;;-2.76;100.00
41250;BME280;26984;59.928;30.306;2023-01-28T12:54:30;101639.25;;;-2.99;100.00
41250;BME280;26984;59.928;30.306;2023-01-28T12:57:00;101623.59;;;-3.15;100.00
41250;BME280;26984;59.928;30.306;2023-01-28T12:59:32;101633.38;;;-3.29;100.00
41250;BME280;26984;59.928;30.306;2023-01-28T13:02:17;101619.44;;;-3.44;100.00
41250;BME280;26984;59.928;30.306;2023-01-28T13:04:53;101622.41;;;-3.36;100.00
41250;BME280;26984;59.928;30.306;2023-01-28T13:07:26;101618.34;;;-3.15;100.00